Time;durP1;ratioP1;P1;durP2;ratioP2;P2;SDS_P1;SDS_P2;PMS_P1;PMS_P2;Temp;Humidity;BMP_temperature;BMP_pressure;BME280_temperature;BME280_humidity;BME280_pressure;Samples;Min_cycle;Max_cycle;Signal;HPM_P1;HPM_P2
2024/01/05 00:02:47;;;;;;;8.00;7.25;;;;;;;;;;6143291;28;20462;-96
2024/01/05 00:05:49;;;;;;;6.78;6.40;;;;;;;;;;6140826;28;20043;-96
2024/01/05 00:08:52;;;;;;;7.25;6.85;;;;;;;;;;6135920;29;20202;-96
2024/01/05 00:11:54;;;;;;;6.38;6.07;;;;;;;;;;6134934;28;20078;-96
2024/01/05 00:14:56;;;;;;;6.38;6.07;;;;;;;;;;6143397;28;20043;-96
2024/01/05 00:18:00;;;;;;;6.93;6.63;;;;;;;;;;6137637;29;20158;-96
2024/01/05 00:21:02;;;;;;;7.85;7.35;;;;;;;;;;6143228;28;20050;-96
2024/01/05 00:24:04;;;;;;;6.35;5.97;;;;;;;;;;6141923;28;20086;-96
2024/01/05 00:27:06;;;;;;;7.47;7.18;;;;;;;;;;6138976;28;20157;-96
2024/01/05 00:30:08;;;;;;;6.32;6.05;;;;;;;;;;6140478;28;20051;-96
2024/01/05 00:33:10;;;;;;;6.22;5.90;;;;;;;;;;6142103;29;20043;-95
2024/01/05 00:36:13;;;;;;;8.65;8.07;;;;;;;;;;6140627;28;20054;-96
2024/01/05 00:39:16;;;;;;;7.05;6.75;;;;;;;;;;6121583;29;20541;-96
2024/01/05 00:42:18;;;;;;;5.97;5.78;;;;;;;;;;6140326;28;20051;-96
2024/01/05 00:45:20;;;;;;;6.07;5.78;;;;;;;;;;6139974;28;20565;-96
2024/01/05 00:48:22;;;;;;;7.10;6.70;;;;;;;;;;6142747;28;20509;-96
2024/01/05 00:51:25;;;;;;;6.70;6.40;;;;;;;;;;6142479;28;20047;-96
2024/01/05 00:54:27;;;;;;;7.05;6.75;;;;;;;;;;6141321;28;20058;-96
2024/01/05 00:57:31;;;;;;;6.57;6.18;;;;;;;;;;6141529;28;20035;-95
2024/01/05 01:00:33;;;;;;;7.55;7.15;;;;;;;;;;6139348;28;20549;-96
2024/01/05 01:03:36;;;;;;;8.23;7.75;;;;;;;;;;6136660;29;20093;-96
2024/01/05 01:06:38;;;;;;;7.88;7.38;;;;;;;;;;6138252;29;20202;-96
2024/01/05 01:09:40;;;;;;;7.18;6.78;;;;;;;;;;6141688;28;20047;-95
2024/01/05 01:12:42;;;;;;;7.28;6.70;;;;;;;;;;6142092;28;20414;-95
2024/01/05 01:15:44;;;;;;;8.52;8.13;;;;;;;;;;6139614;28;20035;-95
2024/01/05 01:18:46;;;;;;;6.55;6.25;;;;;;;;;;6138850;28;20043;-95
2024/01/05 01:21:48;;;;;;;7.05;6.75;;;;;;;;;;6135770;28;20047;-95
2024/01/05 01:24:52;;;;;;;7.35;6.75;;;;;;;;;;6137862;29;20126;-95
2024/01/05 01:27:53;;;;;;;8.50;6.60;;;;;;;;;;6141580;28;20524;-95
2024/01/05 01:30:56;;;;;;;7.80;7.40;;;;;;;;;;6139968;28;20521;-95
2024/01/05 01:33:58;;;;;;;7.85;7.50;;;;;;;;;;6141550;28;20058;-96
2024/01/05 01:37:00;;;;;;;6.85;6.55;;;;;;;;;;6138585;29;20054;-96
2024/01/05 01:40:04;;;;;;;6.72;6.43;;;;;;;;;;6140683;28;20045;-95
2024/01/05 01:43:15;;;;;;;8.55;7.85;;;;;;;;;;6139020;29;20550;-95
2024/01/05 01:46:17;;;;;;;10.73;7.80;;;;;;;;;;6137934;28;20043;-95
2024/01/05 01:49:19;;;;;;;7.75;7.35;;;;;;;;;;6139263;29;20069;-95
2024/01/05 01:52:22;;;;;;;7.38;6.78;;;;;;;;;;6138200;28;20122;-96
2024/01/05 01:55:24;;;;;;;8.45;8.00;;;;;;;;;;6131941;28;20055;-96
2024/01/05 01:58:26;;;;;;;6.53;6.25;;;;;;;;;;6140322;28;20091;-96
2024/01/05 02:01:28;;;;;;;7.53;7.03;;;;;;;;;;6140711;29;20126;-96
2024/01/05 02:04:30;;;;;;;6.85;6.45;;;;;;;;;;6140024;29;20182;-96
2024/01/05 02:07:32;;;;;;;8.55;7.88;;;;;;;;;;6134510;28;20051;-96
2024/01/05 02:10:35;;;;;;;9.23;8.43;;;;;;;;;;6139024;28;20124;-96
2024/01/05 02:13:36;;;;;;;7.20;6.85;;;;;;;;;;6138461;28;20039;-96
2024/01/05 02:16:40;;;;;;;7.22;6.88;;;;;;;;;;6137950;28;20498;-96
2024/01/05 02:19:42;;;;;;;8.80;8.25;;;;;;;;;;6135325;28;20047;-96
2024/01/05 02:22:51;;;;;;;9.05;8.55;;;;;;;;;;6138472;29;20039;-96
2024/01/05 02:25:56;;;;;;;8.25;7.75;;;;;;;;;;6138432;29;20054;-96
2024/01/05 02:28:57;;;;;;;7.45;7.05;;;;;;;;;;6136149;29;20054;-95
2024/01/05 02:31:59;;;;;;;8.00;7.55;;;;;;;;;;6135234;28;20047;-95
2024/01/05 02:35:01;;;;;;;8.07;7.60;;;;;;;;;;6133263;29;20074;-95
2024/01/05 02:38:04;;;;;;;6.68;6.38;;;;;;;;;;6137428;28;20039;-94
2024/01/05 02:41:06;;;;;;;8.07;7.68;;;;;;;;;;6138020;28;20039;-94
2024/01/05 02:44:08;;;;;;;12.75;8.18;;;;;;;;;;6132092;29;20047;-93
2024/01/05 02:47:10;;;;;;;7.30;7.00;;;;;;;;;;6136234;28;20039;-93
2024/01/05 02:50:12;;;;;;;7.22;6.82;;;;;;;;;;6138618;29;20058;-93
2024/01/05 02:53:15;;;;;;;8.70;7.88;;;;;;;;;;6135890;28;20046;-93
2024/01/05 02:56:23;;;;;;;7.13;6.80;;;;;;;;;;6136173;29;20047;-94
2024/01/05 02:59:25;;;;;;;9.13;8.63;;;;;;;;;;6138608;29;20233;-93
2024/01/05 03:02:26;;;;;;;8.93;8.20;;;;;;;;;;6139668;28;20509;-93
2024/01/05 03:05:28;;;;;;;8.15;7.72;;;;;;;;;;6132313;29;20383;-93
2024/01/05 03:08:30;;;;;;;6.45;6.20;;;;;;;;;;6139078;29;20047;-93
2024/01/05 03:11:32;;;;;;;7.40;7.00;;;;;;;;;;6138417;28;20066;-91
2024/01/05 03:14:34;;;;;;;8.73;8.13;;;;;;;;;;6126713;28;20114;-92
2024/01/05 03:17:36;;;;;;;7.72;7.20;;;;;;;;;;6138733;28;20047;-93
2024/01/05 03:20:39;;;;;;;8.98;8.27;;;;;;;;;;6137461;28;20560;-93
2024/01/05 03:23:41;;;;;;;8.13;7.50;;;;;;;;;;6138096;29;20256;-90
2024/01/05 03:26:43;;;;;;;7.90;7.30;;;;;;;;;;6119558;29;20047;-91
2024/01/05 03:29:46;;;;;;;8.20;7.65;;;;;;;;;;6139855;28;20494;-96
2024/01/05 03:32:48;;;;;;;6.95;6.65;;;;;;;;;;6125166;29;20043;-95
2024/01/05 03:35:51;;;;;;;7.93;7.57;;;;;;;;;;6121732;29;20040;-96
2024/01/05 03:38:54;;;;;;;7.60;7.22;;;;;;;;;;6140988;29;20442;-95
2024/01/05 03:41:56;;;;;;;7.03;6.72;;;;;;;;;;6126948;28;20036;-94
2024/01/05 03:44:58;;;;;;;7.95;7.28;;;;;;;;;;6135471;28;20043;-94
2024/01/05 03:48:00;;;;;;;6.60;6.38;;;;;;;;;;6130723;29;20138;-93
2024/01/05 03:51:03;;;;;;;7.70;7.10;;;;;;;;;;6129336;28;20131;-95
2024/01/05 03:54:05;;;;;;;7.40;6.82;;;;;;;;;;6140125;29;20047;-95
2024/01/05 03:57:07;;;;;;;6.45;6.18;;;;;;;;;;6139360;28;20039;-94
2024/01/05 04:00:10;;;;;;;7.50;7.03;;;;;;;;;;6140292;28;20125;-93
2024/01/05 04:03:12;;;;;;;7.38;6.95;;;;;;;;;;6144315;29;20043;-95
2024/01/05 04:06:21;;;;;;;6.50;6.30;;;;;;;;;;6139811;29;20071;-94
2024/01/05 04:09:23;;;;;;;7.90;7.40;;;;;;;;;;6138826;29;20418;-94
2024/01/05 04:12:25;;;;;;;7.63;7.25;;;;;;;;;;6139054;28;20043;-90
2024/01/05 04:15:28;;;;;;;6.28;6.07;;;;;;;;;;6140642;29;20051;-93
2024/01/05 04:18:30;;;;;;;8.75;7.93;;;;;;;;;;6143082;29;20051;-94
2024/01/05 04:21:32;;;;;;;7.68;7.25;;;;;;;;;;6143211;28;20101;-93
2024/01/05 04:24:35;;;;;;;7.13;6.82;;;;;;;;;;6143875;28;20094;-94
2024/01/05 04:27:38;;;;;;;8.00;7.50;;;;;;;;;;6132076;29;20532;-93
2024/01/05 04:30:40;;;;;;;6.47;6.05;;;;;;;;;;6137185;28;20122;-92
2024/01/05 04:33:43;;;;;;;7.78;7.38;;;;;;;;;;6135476;29;20051;-92
2024/01/05 04:36:45;;;;;;;7.22;6.93;;;;;;;;;;6138860;29;20035;-92
2024/01/05 04:39:49;;;;;;;7.95;7.50;;;;;;;;;;6139874;28;20688;-91
2024/01/05 04:42:50;;;;;;;6.05;5.78;;;;;;;;;;6135317;29;20246;-91
2024/01/05 04:45:52;;;;;;;6.55;6.22;;;;;;;;;;6138404;29;20047;-91
2024/01/05 04:48:54;;;;;;;6.47;6.18;;;;;;;;;;6137377;28;20498;-92
2024/01/05 04:51:56;;;;;;;7.75;7.25;;;;;;;;;;6140199;29;20508;-91
2024/01/05 04:54:58;;;;;;;13.93;6.45;;;;;;;;;;6145341;29;20125;-92
2024/01/05 04:58:00;;;;;;;6.65;6.35;;;;;;;;;;6139500;28;20510;-92
2024/01/05 05:01:02;;;;;;;7.32;6.93;;;;;;;;;;6141892;28;20045;-92
2024/01/05 05:04:04;;;;;;;7.13;6.63;;;;;;;;;;6144831;28;20039;-91
2024/01/05 05:07:06;;;;;;;7.32;6.82;;;;;;;;;;6143711;28;20039;-92
2024/01/05 05:10:08;;;;;;;5.57;5.38;;;;;;;;;;6123938;28;20047;-92
2024/01/05 05:13:10;;;;;;;9.40;8.63;;;;;;;;;;6139671;29;20102;-91
2024/01/05 05:16:12;;;;;;;6.60;6.18;;;;;;;;;;6142042;28;20050;-91
2024/01/05 05:19:13;;;;;;;7.57;7.20;;;;;;;;;;6139547;29;20054;-91
2024/01/05 05:22:15;;;;;;;7.15;6.72;;;;;;;;;;6140734;29;20439;-91
2024/01/05 05:25:17;;;;;;;8.02;7.45;;;;;;;;;;6141172;29;20040;-91
2024/01/05 05:28:19;;;;;;;7.72;7.20;;;;;;;;;;6142438;29;20490;-91
2024/01/05 05:31:21;;;;;;;7.75;7.32;;;;;;;;;;6134701;29;20027;-91
2024/01/05 05:34:23;;;;;;;8.60;8.10;;;;;;;;;;6144464;29;20047;-92
2024/01/05 05:37:25;;;;;;;7.85;7.35;;;;;;;;;;6142675;28;20043;-91
2024/01/05 05:40:27;;;;;;;8.13;7.43;;;;;;;;;;6143823;28;20051;-91
2024/01/05 05:43:28;;;;;;;6.43;6.03;;;;;;;;;;6142639;28;20046;-92
2024/01/05 05:46:30;;;;;;;8.98;8.27;;;;;;;;;;6137080;29;20528;-91
2024/01/05 05:49:32;;;;;;;10.63;10.13;;;;;;;;;;6134468;29;20055;-91
2024/01/05 05:52:40;;;;;;;6.82;6.47;;;;;;;;;;6135219;29;20078;-92
2024/01/05 05:55:43;;;;;;;8.38;7.85;;;;;;;;;;6140366;28;20074;-91
2024/01/05 05:58:45;;;;;;;7.72;7.32;;;;;;;;;;6135633;29;20061;-91
2024/01/05 06:01:46;;;;;;;8.68;8.18;;;;;;;;;;6137831;29;20234;-91
2024/01/05 06:04:48;;;;;;;8.27;7.85;;;;;;;;;;6132858;28;20129;-91
2024/01/05 06:07:50;;;;;;;8.40;7.57;;;;;;;;;;6141923;28;20414;-91
2024/01/05 06:10:52;;;;;;;7.18;6.78;;;;;;;;;;6143012;28;20077;-91
2024/01/05 06:13:56;;;;;;;6.90;6.60;;;;;;;;;;6133467;28;20050;-91
2024/01/05 06:16:57;;;;;;;7.13;6.63;;;;;;;;;;6133155;28;20074;-91
2024/01/05 06:19:59;;;;;;;8.32;7.93;;;;;;;;;;6139147;28;20047;-91
2024/01/05 06:23:02;;;;;;;6.75;6.45;;;;;;;;;;6139653;29;20051;-91
2024/01/05 06:26:04;;;;;;;6.45;6.05;;;;;;;;;;6142521;28;20607;-91
2024/01/05 06:29:07;;;;;;;6.55;6.22;;;;;;;;;;6139618;28;20078;-91
2024/01/05 06:32:08;;;;;;;6.18;5.88;;;;;;;;;;6137642;29;20926;-91
2024/01/05 06:35:12;;;;;;;7.60;7.05;;;;;;;;;;6141015;28;20051;-91
2024/01/05 06:38:14;;;;;;;7.05;6.65;;;;;;;;;;6130869;29;20051;-91
2024/01/05 06:41:16;;;;;;;7.45;6.93;;;;;;;;;;6138971;28;20046;-91
2024/01/05 06:44:17;;;;;;;7.90;7.38;;;;;;;;;;6134017;29;20404;-91
2024/01/05 06:47:19;;;;;;;7.35;6.78;;;;;;;;;;6131129;28;20070;-91
2024/01/05 06:50:21;;;;;;;7.47;7.15;;;;;;;;;;6142438;28;20490;-92
2024/01/05 06:53:24;;;;;;;7.72;7.13;;;;;;;;;;6133745;29;20520;-91
2024/01/05 06:56:27;;;;;;;7.10;6.70;;;;;;;;;;6133374;28;20047;-91
2024/01/05 06:59:30;;;;;;;7.10;6.80;;;;;;;;;;6136923;29;20051;-91
2024/01/05 07:02:32;;;;;;;8.50;8.00;;;;;;;;;;6129114;28;20044;-91
2024/01/05 07:05:33;;;;;;;7.57;7.00;;;;;;;;;;6140036;28;20057;-91
2024/01/05 07:08:35;;;;;;;7.60;7.18;;;;;;;;;;6134214;28;20046;-91
2024/01/05 07:11:37;;;;;;;8.70;7.88;;;;;;;;;;6130429;28;20066;-91
2024/01/05 07:14:39;;;;;;;7.57;7.07;;;;;;;;;;6131426;28;20519;-91
2024/01/05 07:17:42;;;;;;;7.57;7.18;;;;;;;;;;6125930;29;20098;-92
2024/01/05 07:20:45;;;;;;;7.15;6.85;;;;;;;;;;6134864;28;20063;-91
2024/01/05 07:23:46;;;;;;;9.23;8.63;;;;;;;;;;6139059;29;20043;-91
2024/01/05 07:26:48;;;;;;;7.55;7.13;;;;;;;;;;6142371;28;20039;-91
2024/01/05 07:29:51;;;;;;;7.18;6.72;;;;;;;;;;6139011;28;20054;-92
2024/01/05 07:32:53;;;;;;;7.10;6.78;;;;;;;;;;6136143;29;20585;-91
2024/01/05 07:35:55;;;;;;;7.72;7.22;;;;;;;;;;6146161;28;20481;-92
2024/01/05 07:38:59;;;;;;;10.13;7.97;;;;;;;;;;6146947;28;20421;-92
2024/01/05 07:42:02;;;;;;;8.48;7.88;;;;;;;;;;6141255;28;20048;-92
2024/01/05 07:45:05;;;;;;;13.50;6.65;;;;;;;;;;6144195;28;20046;-92
2024/01/05 07:48:08;;;;;;;7.75;6.93;;;;;;;;;;6145631;29;20552;-92
2024/01/05 07:51:10;;;;;;;6.97;6.65;;;;;;;;;;6143992;29;20039;-92
2024/01/05 07:54:12;;;;;;;7.60;6.72;;;;;;;;;;6137762;28;20528;-92
2024/01/05 07:57:14;;;;;;;6.88;6.57;;;;;;;;;;6144472;28;20043;-92
2024/01/05 08:00:16;;;;;;;7.13;6.75;;;;;;;;;;6139007;28;20404;-92
2024/01/05 08:03:21;;;;;;;8.27;7.78;;;;;;;;;;6143934;28;20124;-92
2024/01/05 08:06:23;;;;;;;8.75;8.18;;;;;;;;;;6141127;28;20161;-92
2024/01/05 08:09:26;;;;;;;9.65;9.05;;;;;;;;;;6145017;28;20054;-92
2024/01/05 08:12:28;;;;;;;7.82;7.43;;;;;;;;;;6150658;28;20054;-92
2024/01/05 08:15:30;;;;;;;7.70;7.20;;;;;;;;;;6145297;28;20541;-92
2024/01/05 08:18:32;;;;;;;8.07;7.63;;;;;;;;;;6125475;29;20520;-92
2024/01/05 08:21:34;;;;;;;7.47;6.97;;;;;;;;;;6144263;28;20069;-92
2024/01/05 08:24:37;;;;;;;7.53;7.13;;;;;;;;;;6143511;28;20417;-93
2024/01/05 08:27:39;;;;;;;7.78;7.05;;;;;;;;;;6136743;29;20561;-92
2024/01/05 08:30:41;;;;;;;8.95;8.40;;;;;;;;;;6142813;28;20039;-91
2024/01/05 08:33:43;;;;;;;7.90;7.50;;;;;;;;;;6133914;29;20050;-91
2024/01/05 08:36:45;;;;;;;9.55;8.85;;;;;;;;;;6131874;29;20178;-91
2024/01/05 08:39:47;;;;;;;6.47;6.18;;;;;;;;;;6145551;28;20405;-91
2024/01/05 08:42:49;;;;;;;10.00;9.15;;;;;;;;;;6134550;29;20055;-89
2024/01/05 08:45:50;;;;;;;9.20;8.05;;;;;;;;;;6133254;28;20490;-88
2024/01/05 08:48:52;;;;;;;7.80;7.25;;;;;;;;;;6136108;29;20043;-88
2024/01/05 08:51:54;;;;;;;7.43;6.97;;;;;;;;;;6141835;29;20054;-87
2024/01/05 08:54:56;;;;;;;8.23;7.78;;;;;;;;;;6141369;28;20051;-87
2024/01/05 08:57:58;;;;;;;7.60;7.00;;;;;;;;;;6141803;29;20047;-87
2024/01/05 09:01:00;;;;;;;7.55;7.15;;;;;;;;;;6135832;28;20158;-87
2024/01/05 09:04:02;;;;;;;6.07;5.78;;;;;;;;;;6140907;29;20054;-87
2024/01/05 09:07:04;;;;;;;6.97;6.68;;;;;;;;;;6144435;28;20039;-87
2024/01/05 09:10:08;;;;;;;7.95;7.55;;;;;;;;;;6143710;28;20504;-87
2024/01/05 09:13:10;;;;;;;8.25;7.65;;;;;;;;;;6136517;28;20054;-87
2024/01/05 09:16:12;;;;;;;8.35;7.95;;;;;;;;;;6138272;29;20128;-87
2024/01/05 09:19:14;;;;;;;6.82;6.38;;;;;;;;;;6132685;28;20226;-87
2024/01/05 09:22:16;;;;;;;8.98;8.15;;;;;;;;;;6129516;29;20062;-87
2024/01/05 09:25:17;;;;;;;6.63;6.30;;;;;;;;;;6141250;29;20561;-87
2024/01/05 09:28:19;;;;;;;8.32;7.65;;;;;;;;;;6136652;28;20050;-86
2024/01/05 09:31:21;;;;;;;7.05;6.65;;;;;;;;;;6139375;29;20066;-87
2024/01/05 09:34:23;;;;;;;7.03;6.55;;;;;;;;;;6131932;28;20405;-87
2024/01/05 09:37:25;;;;;;;8.25;6.85;;;;;;;;;;6133436;29;20134;-87
2024/01/05 09:40:27;;;;;;;8.27;7.50;;;;;;;;;;6144115;28;20462;-87
2024/01/05 09:43:29;;;;;;;7.45;6.82;;;;;;;;;;6138205;29;20062;-87
2024/01/05 09:46:32;;;;;;;6.65;6.15;;;;;;;;;;6140977;28;20253;-87
2024/01/05 09:49:34;;;;;;;7.05;6.65;;;;;;;;;;6141211;28;20067;-87
2024/01/05 09:52:36;;;;;;;7.85;7.45;;;;;;;;;;6142582;29;20049;-87
2024/01/05 09:55:38;;;;;;;8.80;8.40;;;;;;;;;;6142178;28;20110;-87
2024/01/05 09:58:40;;;;;;;7.88;7.38;;;;;;;;;;6142778;28;20458;-87
2024/01/05 10:01:42;;;;;;;8.95;8.23;;;;;;;;;;6142044;29;20047;-87
2024/01/05 10:04:44;;;;;;;6.85;6.55;;;;;;;;;;6140126;29;20514;-87
2024/01/05 10:07:46;;;;;;;7.40;6.90;;;;;;;;;;6143325;28;20051;-87
2024/01/05 10:10:49;;;;;;;7.40;7.03;;;;;;;;;;6140172;28;20078;-87
2024/01/05 10:13:55;;;;;;;6.57;6.30;;;;;;;;;;6132413;29;20046;-87
2024/01/05 10:17:09;;;;;;;7.20;6.80;;;;;;;;;;6134986;29;20032;-87
2024/01/05 10:20:17;;;;;;;7.15;6.85;;;;;;;;;;6137227;28;20525;-87
2024/01/05 10:23:19;;;;;;;7.18;6.88;;;;;;;;;;6141934;28;20193;-87
2024/01/05 10:26:21;;;;;;;7.97;7.25;;;;;;;;;;6141726;28;20117;-87
2024/01/05 10:29:24;;;;;;;8.80;8.38;;;;;;;;;;6142128;28;20109;-87
2024/01/05 10:32:26;;;;;;;8.45;7.90;;;;;;;;;;6131861;28;20055;-87
2024/01/05 10:35:30;;;;;;;7.45;7.00;;;;;;;;;;6134177;28;20051;-88
2024/01/05 10:38:32;;;;;;;6.68;6.38;;;;;;;;;;6141438;28;20095;-87
2024/01/05 10:41:35;;;;;;;7.45;7.13;;;;;;;;;;6137987;28;20039;-88
2024/01/05 10:44:37;;;;;;;7.45;7.15;;;;;;;;;;6136450;28;20564;-88
2024/01/05 10:47:39;;;;;;;9.23;8.35;;;;;;;;;;6142230;28;20129;-87
2024/01/05 10:50:43;;;;;;;6.93;6.57;;;;;;;;;;6140749;28;20051;-87
2024/01/05 10:53:47;;;;;;;6.88;6.57;;;;;;;;;;6138451;28;20043;-88
2024/01/05 10:56:53;;;;;;;7.55;7.15;;;;;;;;;;6137060;29;20439;-88
2024/01/05 10:59:56;;;;;;;9.43;8.90;;;;;;;;;;6139231;28;20485;-88
2024/01/05 11:03:18;;;;;;;6.97;6.68;;;;;;;;;;6136554;29;20039;-88
2024/01/05 11:06:20;;;;;;;6.90;6.70;;;;;;;;;;6136804;28;20048;-88
2024/01/05 11:09:35;;;;;;;13.07;6.95;;;;;;;;;;6143228;29;20043;-88
2024/01/05 11:12:55;;;;;;;8.02;7.60;;;;;;;;;;6143195;29;20413;-88
2024/01/05 11:16:03;;;;;;;7.20;6.90;;;;;;;;;;6140051;29;20046;-88
2024/01/05 11:19:05;;;;;;;8.27;7.72;;;;;;;;;;6143202;29;20087;-88
2024/01/05 11:22:14;;;;;;;7.20;6.90;;;;;;;;;;6142279;29;20043;-88
2024/01/05 11:25:16;;;;;;;6.80;6.47;;;;;;;;;;6143843;28;20215;-88
2024/01/05 11:28:41;;;;;;;8.52;7.72;;;;;;;;;;6135526;29;20046;-88
2024/01/05 11:31:46;;;;;;;6.97;6.68;;;;;;;;;;6142794;28;20118;-88
2024/01/05 11:34:49;;;;;;;9.15;8.43;;;;;;;;;;6140136;28;20161;-89
2024/01/05 11:37:51;;;;;;;8.73;8.13;;;;;;;;;;6138433;29;20142;-89
2024/01/05 11:40:54;;;;;;;7.38;6.88;;;;;;;;;;6147616;28;20054;-88
2024/01/05 11:43:55;;;;;;;7.70;7.35;;;;;;;;;;6141115;28;20035;-89
2024/01/05 11:46:59;;;;;;;8.13;7.70;;;;;;;;;;6138739;28;20131;-89
2024/01/05 11:50:20;;;;;;;9.07;8.32;;;;;;;;;;6138668;28;20058;-88
2024/01/05 11:53:24;;;;;;;7.60;7.10;;;;;;;;;;6141870;29;20493;-89
2024/01/05 11:56:26;;;;;;;8.68;8.00;;;;;;;;;;6144311;28;20092;-89
2024/01/05 11:59:28;;;;;;;8.07;7.38;;;;;;;;;;6141057;29;20062;-89
2024/01/05 12:02:30;;;;;;;9.25;8.43;;;;;;;;;;6138941;28;20047;-89
2024/01/05 12:05:32;;;;;;;8.02;7.63;;;;;;;;;;6137480;29;20062;-89
2024/01/05 12:08:35;;;;;;;7.38;6.97;;;;;;;;;;6136621;28;20048;-89
2024/01/05 12:11:37;;;;;;;7.10;6.80;;;;;;;;;;6118964;29;20047;-88
2024/01/05 12:14:38;;;;;;;9.20;8.45;;;;;;;;;;6142746;28;20047;-89
2024/01/05 12:17:40;;;;;;;6.85;6.55;;;;;;;;;;6145567;28;20048;-89
2024/01/05 12:20:43;;;;;;;8.38;7.78;;;;;;;;;;6138881;28;20058;-89
2024/01/05 12:23:53;;;;;;;7.32;6.97;;;;;;;;;;6143101;28;20495;-89
2024/01/05 12:26:58;;;;;;;7.63;7.32;;;;;;;;;;6135445;28;20536;-89
2024/01/05 12:30:00;;;;;;;8.38;7.88;;;;;;;;;;6144734;28;20086;-89
2024/01/05 12:33:02;;;;;;;10.73;8.23;;;;;;;;;;6136608;29;20055;-89
2024/01/05 12:36:04;;;;;;;8.43;7.82;;;;;;;;;;6138364;28;20524;-89
2024/01/05 12:39:10;;;;;;;8.50;7.93;;;;;;;;;;6133864;29;20513;-89
2024/01/05 12:42:14;;;;;;;9.10;8.38;;;;;;;;;;6136088;28;20046;-88
2024/01/05 12:45:16;;;;;;;7.97;7.60;;;;;;;;;;6138605;29;20043;-89
2024/01/05 12:48:19;;;;;;;17.30;7.72;;;;;;;;;;6139369;28;20074;-88
2024/01/05 12:51:22;;;;;;;8.68;8.07;;;;;;;;;;6113063;29;20054;-88
2024/01/05 12:54:25;;;;;;;7.55;7.15;;;;;;;;;;6139426;29;20035;-88
2024/01/05 12:57:29;;;;;;;9.32;8.82;;;;;;;;;;6128486;29;20051;-88
2024/01/05 13:00:31;;;;;;;8.10;7.60;;;;;;;;;;6143110;28;20498;-87
2024/01/05 13:03:33;;;;;;;7.32;6.93;;;;;;;;;;6143286;28;20503;-87
2024/01/05 13:06:37;;;;;;;9.40;8.90;;;;;;;;;;6140081;28;20206;-87
2024/01/05 13:09:39;;;;;;;8.52;8.02;;;;;;;;;;6139874;28;20039;-87
2024/01/05 13:12:42;;;;;;;8.05;7.55;;;;;;;;;;6133822;28;20035;-87
2024/01/05 13:15:45;;;;;;;7.72;7.22;;;;;;;;;;6135041;28;20043;-87
2024/01/05 13:18:47;;;;;;;7.75;7.35;;;;;;;;;;6142725;29;20105;-87
2024/01/05 13:21:49;;;;;;;7.32;6.95;;;;;;;;;;6136242;29;20087;-88
2024/01/05 13:24:51;;;;;;;7.40;7.10;;;;;;;;;;6143085;28;20389;-88
2024/01/05 13:27:53;;;;;;;7.80;7.28;;;;;;;;;;6133485;28;20441;-88
2024/01/05 13:30:55;;;;;;;7.82;7.32;;;;;;;;;;6141221;29;20454;-88
2024/01/05 13:33:57;;;;;;;7.50;7.10;;;;;;;;;;6137792;29;20110;-88
2024/01/05 13:36:59;;;;;;;8.55;7.88;;;;;;;;;;6135630;28;20491;-87
2024/01/05 13:40:02;;;;;;;7.97;7.45;;;;;;;;;;6144031;28;20050;-88
2024/01/05 13:43:03;;;;;;;9.50;8.73;;;;;;;;;;6141306;29;20440;-88
2024/01/05 13:46:07;;;;;;;8.25;7.82;;;;;;;;;;6134593;28;20286;-88
2024/01/05 13:49:08;;;;;;;8.63;7.93;;;;;;;;;;6137478;29;20043;-88
2024/01/05 13:52:10;;;;;;;9.10;8.43;;;;;;;;;;6136983;29;20047;-88
2024/01/05 13:55:12;;;;;;;9.27;8.70;;;;;;;;;;6143038;28;20051;-88
2024/01/05 13:58:14;;;;;;;8.68;8.13;;;;;;;;;;6140397;29;20050;-88
2024/01/05 14:01:16;;;;;;;7.57;7.07;;;;;;;;;;6142579;28;20043;-88
2024/01/05 14:04:18;;;;;;;7.15;6.63;;;;;;;;;;6136807;29;20154;-88
2024/01/05 14:07:19;;;;;;;6.72;6.47;;;;;;;;;;6141729;28;20421;-88
2024/01/05 14:10:21;;;;;;;8.57;8.13;;;;;;;;;;6141271;28;20294;-88
2024/01/05 14:13:23;;;;;;;8.98;8.25;;;;;;;;;;6139036;28;20150;-88
2024/01/05 14:16:25;;;;;;;22.00;7.88;;;;;;;;;;6136269;29;20054;-88
2024/01/05 14:19:26;;;;;;;7.10;6.78;;;;;;;;;;6135924;29;20055;-88
2024/01/05 14:22:28;;;;;;;8.23;7.82;;;;;;;;;;6134998;28;20095;-88
2024/01/05 14:25:33;;;;;;;8.05;7.68;;;;;;;;;;6133677;29;20548;-88
2024/01/05 14:28:35;;;;;;;8.00;7.60;;;;;;;;;;6140597;28;20039;-89
2024/01/05 14:31:37;;;;;;;9.20;8.50;;;;;;;;;;6140915;28;20039;-88
2024/01/05 14:34:45;;;;;;;7.85;7.30;;;;;;;;;;6136080;28;20473;-88
2024/01/05 14:37:47;;;;;;;13.15;8.45;;;;;;;;;;6134704;29;20039;-88
2024/01/05 14:40:49;;;;;;;8.20;7.75;;;;;;;;;;6137174;28;20276;-87
2024/01/05 14:43:50;;;;;;;7.13;6.82;;;;;;;;;;6156212;28;20492;-88
2024/01/05 14:46:52;;;;;;;6.10;5.90;;;;;;;;;;6137824;28;20082;-88
2024/01/05 14:49:54;;;;;;;6.28;6.07;;;;;;;;;;6142242;28;20047;-88
2024/01/05 14:52:56;;;;;;;5.22;5.13;;;;;;;;;;6136066;29;20421;-87
2024/01/05 14:56:12;;;;;;;5.55;5.35;;;;;;;;;;6133310;28;20067;-87
2024/01/05 14:59:14;;;;;;;5.60;5.40;;;;;;;;;;6133102;29;20477;-87
2024/01/05 15:02:16;;;;;;;5.78;5.57;;;;;;;;;;6137695;29;20528;-88
2024/01/05 15:05:18;;;;;;;5.65;5.45;;;;;;;;;;6131740;28;20822;-88
2024/01/05 15:08:19;;;;;;;6.60;6.40;;;;;;;;;;6140031;28;20043;-87
2024/01/05 15:11:21;;;;;;;5.78;5.57;;;;;;;;;;6138302;28;20437;-88
2024/01/05 15:14:23;;;;;;;5.80;5.60;;;;;;;;;;6140763;28;20569;-89
2024/01/05 15:17:25;;;;;;;6.13;5.93;;;;;;;;;;6138289;29;20082;-91
2024/01/05 15:20:27;;;;;;;5.68;5.47;;;;;;;;;;6138751;28;20055;-90
2024/01/05 15:23:29;;;;;;;5.45;5.25;;;;;;;;;;6134698;29;20051;-89
2024/01/05 15:26:31;;;;;;;5.43;5.28;;;;;;;;;;6137133;28;20439;-89
2024/01/05 15:29:33;;;;;;;5.53;5.32;;;;;;;;;;6134256;28;20502;-88
2024/01/05 15:32:35;;;;;;;5.70;5.50;;;;;;;;;;6139962;28;20504;-88
2024/01/05 15:35:37;;;;;;;5.65;5.45;;;;;;;;;;6138732;28;20051;-88
2024/01/05 15:38:38;;;;;;;5.55;5.35;;;;;;;;;;6142057;28;20034;-88
2024/01/05 15:41:40;;;;;;;5.72;5.53;;;;;;;;;;6135804;28;20048;-88
2024/01/05 15:44:42;;;;;;;6.60;6.40;;;;;;;;;;6138008;28;20039;-88
2024/01/05 15:47:43;;;;;;;6.50;6.10;;;;;;;;;;6144265;28;20047;-88
2024/01/05 15:50:45;;;;;;;5.72;5.53;;;;;;;;;;6143656;28;20128;-87
2024/01/05 15:53:48;;;;;;;5.47;5.28;;;;;;;;;;6140879;28;20051;-88
2024/01/05 15:56:49;;;;;;;5.68;5.47;;;;;;;;;;6137533;28;20035;-87
2024/01/05 15:59:51;;;;;;;5.00;4.90;;;;;;;;;;6137851;28;20047;-87
2024/01/05 16:02:54;;;;;;;6.22;6.03;;;;;;;;;;6138137;29;20513;-87
2024/01/05 16:05:55;;;;;;;5.50;5.30;;;;;;;;;;6136132;28;20062;-87
2024/01/05 16:08:57;;;;;;;6.65;6.45;;;;;;;;;;6143963;29;20138;-87
2024/01/05 16:11:59;;;;;;;6.35;6.15;;;;;;;;;;6132518;28;20070;-87
2024/01/05 16:15:01;;;;;;;6.82;6.22;;;;;;;;;;6143342;29;20050;-87
2024/01/05 16:18:03;;;;;;;6.00;5.80;;;;;;;;;;6144172;29;20218;-87
2024/01/05 16:21:06;;;;;;;6.32;6.13;;;;;;;;;;6140612;28;20044;-87
2024/01/05 16:24:08;;;;;;;6.43;6.22;;;;;;;;;;6135763;29;20044;-87
2024/01/05 16:27:10;;;;;;;5.97;5.78;;;;;;;;;;6144492;28;20035;-87
2024/01/05 16:30:13;;;;;;;6.22;5.97;;;;;;;;;;6144713;28;20182;-87
2024/01/05 16:33:15;;;;;;;6.40;6.20;;;;;;;;;;6143642;28;20035;-89
2024/01/05 16:36:17;;;;;;;8.20;7.80;;;;;;;;;;6140341;28;20050;-90
2024/01/05 16:39:19;;;;;;;7.75;7.43;;;;;;;;;;6141397;29;20051;-90
2024/01/05 16:42:21;;;;;;;6.72;6.53;;;;;;;;;;6138017;28;20126;-90
2024/01/05 16:45:23;;;;;;;6.97;6.68;;;;;;;;;;6141112;28;20043;-90
2024/01/05 16:48:26;;;;;;;7.20;6.90;;;;;;;;;;6139925;29;20047;-90
2024/01/05 16:51:28;;;;;;;7.88;7.32;;;;;;;;;;6135137;29;20039;-90
2024/01/05 16:54:32;;;;;;;7.93;7.50;;;;;;;;;;6144429;28;20058;-90
2024/01/05 16:57:34;;;;;;;8.32;7.55;;;;;;;;;;6137241;28;20043;-90
2024/01/05 17:00:36;;;;;;;8.60;8.10;;;;;;;;;;6144162;28;20047;-90
2024/01/05 17:03:38;;;;;;;9.65;8.52;;;;;;;;;;6136235;29;20031;-91
2024/01/05 17:06:42;;;;;;;8.07;7.68;;;;;;;;;;6139928;28;20054;-90
2024/01/05 17:09:45;;;;;;;10.38;9.82;;;;;;;;;;6140065;28;20043;-91
2024/01/05 17:12:51;;;;;;;9.00;8.27;;;;;;;;;;6139667;28;20047;-90
2024/01/05 17:15:53;;;;;;;9.15;8.60;;;;;;;;;;6139012;28;20039;-90
2024/01/05 17:18:58;;;;;;;7.55;7.20;;;;;;;;;;6138122;29;20102;-90
2024/01/05 17:22:01;;;;;;;7.28;6.97;;;;;;;;;;6140972;28;20059;-91
2024/01/05 17:25:04;;;;;;;7.22;6.88;;;;;;;;;;6142168;28;20178;-90
2024/01/05 17:28:05;;;;;;;8.70;7.97;;;;;;;;;;6139466;28;20043;-91
2024/01/05 17:31:08;;;;;;;8.80;8.30;;;;;;;;;;6134479;29;20051;-91
2024/01/05 17:34:10;;;;;;;9.55;8.77;;;;;;;;;;6139069;28;20042;-91
2024/01/05 17:37:13;;;;;;;9.48;8.88;;;;;;;;;;6142126;28;20054;-91
2024/01/05 17:40:19;;;;;;;12.45;11.63;;;;;;;;;;6136384;28;20054;-91
2024/01/05 17:43:21;;;;;;;9.10;8.55;;;;;;;;;;6132571;28;20065;-91
2024/01/05 17:46:23;;;;;;;9.85;9.15;;;;;;;;;;6137491;28;20046;-91
2024/01/05 17:49:25;;;;;;;9.70;9.07;;;;;;;;;;6136781;29;20043;-91
2024/01/05 17:52:29;;;;;;;8.85;8.32;;;;;;;;;;6131286;29;20050;-91
2024/01/05 17:55:32;;;;;;;10.57;9.98;;;;;;;;;;6139394;29;20102;-91
2024/01/05 17:58:33;;;;;;;8.70;8.23;;;;;;;;;;6134080;29;20047;-91
2024/01/05 18:01:45;;;;;;;10.32;9.63;;;;;;;;;;6139353;28;20036;-91
2024/01/05 18:04:46;;;;;;;9.63;9.02;;;;;;;;;;6131389;28;20522;-91
2024/01/05 18:07:52;;;;;;;10.05;9.35;;;;;;;;;;6133071;29;20528;-91
2024/01/05 18:10:54;;;;;;;9.55;8.65;;;;;;;;;;6135700;28;20054;-92
2024/01/05 18:13:58;;;;;;;9.80;8.93;;;;;;;;;;6136861;28;20044;-91
2024/01/05 18:17:00;;;;;;;9.13;8.52;;;;;;;;;;6133659;29;20094;-91